createdAt,value
2022-08-07T00:00:40.086Z,102040.75
2022-08-07T00:03:09.166Z,102038.22
2022-08-07T00:05:38.841Z,102034.50
2022-08-07T00:08:08.010Z,102035.56
2022-08-07T00:10:36.266Z,102030.59
2022-08-07T00:13:23.828Z,102034.56
2022-08-07T00:15:54.855Z,102034.81
2022-08-07T00:18:25.256Z,102039.25
2022-08-07T00:20:57.398Z,102031.41
2022-08-07T00:23:30.228Z,102038.81
2022-08-07T00:26:02.817Z,102037.31
2022-08-07T00:28:45.627Z,102038.41
2022-08-07T00:31:16.696Z,102037.19
2022-08-07T00:33:47.493Z,102038.22
2022-08-07T00:36:17.203Z,102042.06
2022-08-07T00:38:45.176Z,102040.59
2022-08-07T00:41:14.657Z,102035.66
2022-08-07T00:43:59.568Z,102028.25
2022-08-07T00:46:32.814Z,102034.97
2022-08-07T00:49:02.707Z,102021.25
2022-08-07T00:51:57.348Z,102030.66
2022-08-07T00:54:20.554Z,102031.16
2022-08-07T00:56:51.690Z,102029.38
2022-08-07T00:59:35.594Z,102029.00
2022-08-07T01:02:09.075Z,102033.03
2022-08-07T01:04:48.258Z,102031.66
2022-08-07T01:07:18.124Z,102027.34
2022-08-07T01:10:06.144Z,102029.91
2022-08-07T01:12:34.923Z,102030.97
2022-08-07T01:15:05.033Z,102025.16
2022-08-07T01:17:34.130Z,102027.38
2022-08-07T01:20:08.013Z,102029.63
2022-08-07T01:22:46.491Z,102032.06
2022-08-07T01:25:40.318Z,102021.81
2022-08-07T01:28:11.277Z,102027.53
2022-08-07T01:30:41.032Z,102026.47
2022-08-07T01:33:10.956Z,102029.09
2022-08-07T01:35:53.487Z,102026.91
2022-08-07T01:38:29.262Z,102015.56
2022-08-07T01:41:03.820Z,102022.47
2022-08-07T01:43:38.067Z,102025.97
2022-08-07T01:46:08.397Z,102028.47
2022-08-07T01:48:46.748Z,102028.59
2022-08-07T01:51:58.813Z,102029.13
2022-08-07T01:54:33.177Z,102028.47
2022-08-07T01:57:24.615Z,102031.56
2022-08-07T01:59:56.966Z,102033.47
2022-08-07T02:02:32.511Z,102031.38
2022-08-07T02:05:43.272Z,102037.59
2022-08-07T02:08:20.593Z,102036.53
2022-08-07T02:10:58.521Z,102036.78
2022-08-07T02:13:56.559Z,102032.16
2022-08-07T02:16:28.726Z,102035.66
2022-08-07T02:19:05.309Z,102028.06
2022-08-07T02:21:56.210Z,102026.06
2022-08-07T02:24:26.238Z,102034.81
2022-08-07T02:27:00.170Z,102032.25
2022-08-07T02:29:30.669Z,102026.16
2022-08-07T02:32:01.107Z,102030.06
2022-08-07T02:34:29.938Z,102035.22
2022-08-07T02:37:01.401Z,102038.19
2022-08-07T02:39:42.909Z,102025.19
2022-08-07T02:42:19.384Z,102029.50
2022-08-07T02:44:55.161Z,102029.63
2022-08-07T02:47:26.987Z,102028.78
2022-08-07T02:50:11.282Z,102019.63
2022-08-07T02:52:48.674Z,102020.44
2022-08-07T02:56:02.040Z,102027.31
2022-08-07T02:58:21.926Z,102034.19
2022-08-07T03:00:58.541Z,102021.50
2022-08-07T03:03:29.577Z,102020.72
2022-08-07T03:06:32.166Z,102018.47
2022-08-07T03:09:04.563Z,102025.34
2022-08-07T03:11:38.574Z,102016.78
2022-08-07T03:14:09.779Z,102026.59
2022-08-07T03:16:39.614Z,102024.22
2022-08-07T03:19:11.373Z,102029.31
2022-08-07T03:21:50.643Z,102027.41
2022-08-07T03:24:27.479Z,102029.31
2022-08-07T03:27:01.872Z,102037.03
2022-08-07T03:29:49.257Z,102030.44
2022-08-07T03:32:23.901Z,102032.38
2022-08-07T03:35:16.738Z,102033.44
2022-08-07T03:37:55.221Z,102030.28
2022-08-07T03:40:31.018Z,102036.56
2022-08-07T03:43:10.109Z,102035.84
2022-08-07T03:45:48.745Z,102031.31
2022-08-07T03:48:21.605Z,102037.66
2022-08-07T03:50:52.124Z,102038.72
2022-08-07T03:53:50.947Z,102037.66
2022-08-07T03:56:17.313Z,102038.97
2022-08-07T03:59:08.545Z,102043.22
2022-08-07T04:01:43.149Z,102041.72
2022-08-07T04:04:17.202Z,102041.25
2022-08-07T04:06:50.953Z,102040.06
2022-08-07T04:09:23.497Z,102043.09
2022-08-07T04:12:23.562Z,102038.69
2022-08-07T04:14:47.547Z,102041.31
2022-08-07T04:17:21.959Z,102039.31
2022-08-07T04:19:54.874Z,102032.88
2022-08-07T04:22:29.010Z,102036.56
2022-08-07T04:25:01.941Z,102047.13
2022-08-07T04:27:35.452Z,102044.09
2022-08-07T04:30:21.574Z,102040.19
2022-08-07T04:33:07.468Z,102043.41
2022-08-07T04:35:37.274Z,102046.75
2022-08-07T04:38:11.560Z,102043.47
2022-08-07T04:40:52.986Z,102050.78
2022-08-07T04:44:10.045Z,102050.81
2022-08-07T04:47:04.787Z,102058.13
2022-08-07T04:49:57.366Z,102053.16
2022-08-07T04:52:35.075Z,102053.91
2022-08-07T04:55:15.353Z,102058.78
2022-08-07T04:58:42.277Z,102061.31
2022-08-07T05:01:18.193Z,102065.22
2022-08-07T05:04:06.785Z,102064.59
2022-08-07T05:06:52.862Z,102064.78
2022-08-07T05:09:45.633Z,102063.31
2022-08-07T05:12:27.078Z,102064.72
2022-08-07T05:15:23.588Z,102058.66
2022-08-07T05:18:00.896Z,102062.41
2022-08-07T05:20:35.904Z,102064.06
2022-08-07T05:23:15.763Z,102063.94
2022-08-07T05:26:10.625Z,102064.25
2022-08-07T05:28:36.624Z,102073.50
2022-08-07T05:31:09.724Z,102068.91
2022-08-07T05:33:38.622Z,102072.97
2022-08-07T05:36:12.219Z,102068.06
2022-08-07T05:39:00.867Z,102060.19
2022-08-07T05:42:00.609Z,102072.13
2022-08-07T05:44:29.083Z,102072.84
2022-08-07T05:47:01.098Z,102066.88
2022-08-07T05:49:40.497Z,102079.09
2022-08-07T05:52:11.711Z,102070.66
2022-08-07T05:54:53.816Z,102075.13
2022-08-07T05:57:30.180Z,102078.97
2022-08-07T06:00:03.330Z,102082.88
2022-08-07T06:02:41.747Z,102081.78
2022-08-07T06:05:15.883Z,102085.03
2022-08-07T06:08:13.016Z,102086.22
2022-08-07T06:10:39.416Z,102086.00
2022-08-07T06:13:13.357Z,102083.72
2022-08-07T06:15:44.112Z,102084.03
2022-08-07T06:18:21.455Z,102083.53
2022-08-07T06:22:11.693Z,102083.31
2022-08-07T06:24:38.743Z,102087.19
2022-08-07T06:26:29.479Z,102092.72
2022-08-07T06:29:01.415Z,102085.78
2022-08-07T06:31:46.703Z,102086.97
2022-08-07T06:34:20.526Z,102089.84
2022-08-07T06:36:52.154Z,102085.00
2022-08-07T06:40:16.869Z,102079.88
2022-08-07T06:42:19.424Z,102085.84
2022-08-07T06:45:26.225Z,102091.69
2022-08-07T06:48:02.282Z,102095.81
2022-08-07T06:50:43.057Z,102095.06
2022-08-07T06:53:18.592Z,102089.84
2022-08-07T06:56:04.585Z,102098.03
2022-08-07T06:58:40.610Z,102095.53
2022-08-07T07:01:33.329Z,102097.50
2022-08-07T07:04:32.724Z,102089.53
2022-08-07T07:07:10.721Z,102089.91
2022-08-07T07:09:52.067Z,102082.19
2022-08-07T07:12:34.694Z,102087.63
2022-08-07T07:15:26.021Z,102084.44
2022-08-07T07:18:01.153Z,102087.63
2022-08-07T07:20:38.779Z,102089.13
2022-08-07T07:24:08.167Z,102091.31
2022-08-07T07:26:33.145Z,102090.59
2022-08-07T07:29:56.955Z,102083.88
2022-08-07T07:31:56.454Z,102091.72
2022-08-07T07:34:32.553Z,102080.53
2022-08-07T07:37:05.626Z,102082.44
2022-08-07T07:39:55.217Z,102085.88
2022-08-07T07:42:33.310Z,102077.53
2022-08-07T07:45:03.209Z,102076.94
2022-08-07T07:47:42.965Z,102073.19
2022-08-07T07:50:34.370Z,102073.63
2022-08-07T07:53:20.085Z,102069.28
2022-08-07T07:55:54.880Z,102061.28
2022-08-07T07:58:29.674Z,102061.97
2022-08-07T08:00:59.199Z,102060.88
2022-08-07T08:04:11.020Z,102061.13
2022-08-07T08:06:20.411Z,102056.44
2022-08-07T08:08:50.403Z,102057.03
2022-08-07T08:11:59.656Z,102056.19
2022-08-07T08:14:15.905Z,102055.09
2022-08-07T08:16:50.388Z,102047.91
2022-08-07T08:20:19.086Z,102060.94
2022-08-07T08:22:33.340Z,102049.28
2022-08-07T08:25:26.955Z,102051.94
2022-08-07T08:28:16.814Z,102047.63
2022-08-07T08:30:55.783Z,102047.00
2022-08-07T08:33:32.895Z,102044.94
2022-08-07T08:36:04.147Z,102046.34
2022-08-07T08:38:41.023Z,102049.28
2022-08-07T08:41:15.732Z,102051.97
2022-08-07T08:43:58.863Z,102044.66
2022-08-07T08:46:38.538Z,102038.72
2022-08-07T08:49:14.023Z,102042.28
2022-08-07T08:52:14.033Z,102031.88
2022-08-07T08:54:46.466Z,102036.63
2022-08-07T08:57:27.214Z,102040.09
2022-08-07T09:00:04.311Z,102030.81
2022-08-07T09:02:37.506Z,102034.75
2022-08-07T09:05:14.576Z,102033.09
2022-08-07T09:07:58.256Z,102031.28
2022-08-07T09:10:28.293Z,102033.72
2022-08-07T09:13:04.142Z,102031.25
2022-08-07T09:16:23.000Z,102028.66
2022-08-07T09:18:35.006Z,102028.00
2022-08-07T09:21:13.639Z,102024.16
2022-08-07T09:24:30.645Z,102029.97
2022-08-07T09:26:57.122Z,102021.41
2022-08-07T09:30:03.991Z,102022.25
2022-08-07T09:32:26.402Z,102016.56
2022-08-07T09:34:59.988Z,102014.84
2022-08-07T09:37:53.538Z,102003.41
2022-08-07T09:40:27.436Z,102014.66
2022-08-07T09:42:59.447Z,102008.53
2022-08-07T09:47:27.738Z,102005.78
2022-08-07T09:48:30.152Z,102005.84
2022-08-07T09:52:10.496Z,102003.78
2022-08-07T09:54:04.319Z,101994.38
2022-08-07T09:56:53.047Z,101992.16
2022-08-07T09:59:35.665Z,101988.53
2022-08-07T10:02:24.375Z,101991.28
2022-08-07T10:05:12.767Z,101986.06
2022-08-07T10:07:53.755Z,101983.91
2022-08-07T10:11:07.759Z,101985.41
2022-08-07T10:14:00.181Z,101977.16
2022-08-07T10:16:36.482Z,101983.31
2022-08-07T10:19:15.996Z,101971.31
2022-08-07T10:22:12.196Z,101967.03
2022-08-07T10:25:05.329Z,101970.59
2022-08-07T10:27:46.612Z,101964.56
2022-08-07T10:30:18.944Z,101958.00
2022-08-07T10:33:05.711Z,101953.16
2022-08-07T10:35:56.028Z,101951.81
2022-08-07T10:38:48.214Z,101953.28
2022-08-07T10:41:52.247Z,101949.94
2022-08-07T10:44:14.655Z,101940.16
2022-08-07T10:46:49.325Z,101943.72
2022-08-07T10:49:24.514Z,101940.78
2022-08-07T10:52:15.553Z,101931.84
2022-08-07T10:54:53.543Z,101934.19
2022-08-07T10:57:40.100Z,101935.56
2022-08-07T11:00:09.598Z,101933.84
2022-08-07T11:03:01.811Z,101929.63
2022-08-07T11:05:48.736Z,101920.63
2022-08-07T11:08:30.185Z,101924.00
2022-08-07T11:11:00.515Z,101922.97
2022-08-07T11:14:42.581Z,101925.66
2022-08-07T11:16:21.750Z,101915.19
2022-08-07T11:19:03.051Z,101907.81
2022-08-07T11:21:42.734Z,101906.41
2022-08-07T11:24:13.127Z,101913.06
2022-08-07T11:26:49.857Z,101902.69
2022-08-07T11:29:42.912Z,101910.06
2022-08-07T11:32:13.811Z,101903.53
2022-08-07T11:34:56.696Z,101899.84
2022-08-07T11:37:58.119Z,101902.66
2022-08-07T11:40:36.986Z,101889.19
2022-08-07T11:43:15.541Z,101884.81
2022-08-07T11:45:53.647Z,101887.75
2022-08-07T11:48:40.528Z,101883.22
2022-08-07T11:51:41.657Z,101887.91
2022-08-07T11:54:13.892Z,101876.09
2022-08-07T11:56:52.220Z,101876.25
2022-08-07T12:00:10.990Z,101879.44
2022-08-07T12:02:30.471Z,101877.69
2022-08-07T12:05:03.999Z,101876.94
2022-08-07T12:07:42.118Z,101869.81
2022-08-07T12:10:17.856Z,101874.97
2022-08-07T12:12:49.059Z,101865.28
2022-08-07T12:15:35.688Z,101861.81
2022-08-07T12:18:13.694Z,101861.34
2022-08-07T12:20:49.243Z,101858.63
2022-08-07T12:24:06.001Z,101852.81
2022-08-07T12:26:34.472Z,101850.38
2022-08-07T12:29:11.267Z,101856.31
2022-08-07T12:32:02.454Z,101848.03
2022-08-07T12:34:30.972Z,101847.59
2022-08-07T12:37:00.801Z,101853.97
2022-08-07T12:39:43.933Z,101851.03
2022-08-07T12:42:27.152Z,101833.16
2022-08-07T12:44:57.304Z,101831.50
2022-08-07T12:47:30.676Z,101835.72
2022-08-07T12:50:05.141Z,101825.25
2022-08-07T12:52:57.010Z,101824.97
2022-08-07T12:55:40.797Z,101829.88
2022-08-07T12:58:12.873Z,101826.53
2022-08-07T13:00:49.969Z,101819.38
2022-08-07T13:03:56.105Z,101823.38
2022-08-07T13:06:31.145Z,101821.28
2022-08-07T13:09:02.659Z,101816.59
2022-08-07T13:12:00.967Z,101812.97
2022-08-07T13:14:37.271Z,101818.13
2022-08-07T13:17:21.169Z,101810.97
2022-08-07T13:19:52.134Z,101807.78
2022-08-07T13:22:28.386Z,101806.13
2022-08-07T13:25:00.047Z,101801.47
2022-08-07T13:28:05.905Z,101805.03
2022-08-07T13:30:40.319Z,101805.03
2022-08-07T13:33:16.438Z,101800.88
2022-08-07T13:36:05.666Z,101790.66
2022-08-07T13:38:39.141Z,101794.78
2022-08-07T13:41:15.067Z,101790.91
2022-08-07T13:43:52.698Z,101786.72
2022-08-07T13:46:32.858Z,101782.03
2022-08-07T13:49:01.970Z,101779.78
2022-08-07T13:52:04.723Z,101779.28
2022-08-07T13:54:23.548Z,101772.06
2022-08-07T13:56:56.030Z,101764.13
2022-08-07T13:59:31.279Z,101774.34
2022-08-07T14:02:07.531Z,101771.72
2022-08-07T14:04:49.706Z,101765.56
2022-08-07T14:07:19.802Z,101759.56
2022-08-07T14:10:12.025Z,101750.47
2022-08-07T14:12:54.547Z,101754.84
2022-08-07T14:15:31.864Z,101749.31
2022-08-07T14:18:24.081Z,101746.25
2022-08-07T14:20:54.643Z,101751.09
2022-08-07T14:23:59.564Z,101745.31
2022-08-07T14:26:29.833Z,101741.00
2022-08-07T14:29:08.637Z,101744.66
2022-08-07T14:31:43.107Z,101736.00
2022-08-07T14:34:29.608Z,101736.53
2022-08-07T14:36:59.248Z,101735.16
2022-08-07T14:40:17.515Z,101727.53
2022-08-07T14:42:24.052Z,101731.50
2022-08-07T14:44:54.038Z,101731.88
2022-08-07T14:47:32.415Z,101730.59
2022-08-07T14:50:06.164Z,101722.13
2022-08-07T14:52:39.657Z,101719.28
2022-08-07T14:55:09.092Z,101722.34
2022-08-07T14:57:58.326Z,101716.19
2022-08-07T15:00:30.462Z,101713.19
2022-08-07T15:05:54.198Z,101711.84
2022-08-07T15:08:32.348Z,101718.06
2022-08-07T15:11:02.962Z,101714.13
2022-08-07T15:13:37.019Z,101719.09
2022-08-07T15:16:11.213Z,101708.94
2022-08-07T15:18:45.288Z,101704.28
2022-08-07T15:25:14.182Z,101704.66
2022-08-07T15:26:58.107Z,101703.59
2022-08-07T15:30:09.206Z,101700.56
2022-08-07T15:32:39.570Z,101700.91
2022-08-07T15:35:16.923Z,101701.78
2022-08-07T15:38:17.886Z,101702.41
2022-08-07T15:40:37.753Z,101695.00
2022-08-07T15:43:53.741Z,101694.78
2022-08-07T15:52:01.618Z,101686.69
2022-08-07T15:54:34.548Z,101696.34
2022-08-07T15:57:10.784Z,101694.41
2022-08-07T15:59:59.309Z,101686.16
2022-08-07T16:02:28.869Z,101686.69
2022-08-07T16:05:00.038Z,101680.63
2022-08-07T16:08:30.792Z,101679.63
2022-08-07T16:10:21.708Z,101677.91
2022-08-07T16:13:04.747Z,101679.69
2022-08-07T16:15:57.411Z,101678.34
2022-08-07T16:18:50.454Z,101677.41
2022-08-07T16:22:02.143Z,101673.44
2022-08-07T16:24:33.653Z,101670.03
2022-08-07T16:27:17.888Z,101679.38
2022-08-07T16:30:10.147Z,101676.41
2022-08-07T16:32:55.154Z,101670.13
2022-08-07T16:35:50.653Z,101671.59
2022-08-07T16:38:50.754Z,101666.28
2022-08-07T16:41:22.251Z,101675.31
2022-08-07T16:44:47.399Z,101670.81
2022-08-07T16:47:22.926Z,101672.06
2022-08-07T16:50:35.795Z,101661.78
2022-08-07T16:54:02.167Z,101671.00
2022-08-07T16:56:04.306Z,101660.06
2022-08-07T16:59:10.545Z,101665.63
2022-08-07T17:01:41.217Z,101670.00
2022-08-07T17:04:14.432Z,101669.53
2022-08-07T17:06:57.972Z,101670.09
2022-08-07T17:10:06.052Z,101670.00
2022-08-07T17:12:36.762Z,101672.25
2022-08-07T17:15:18.857Z,101667.88
2022-08-07T17:17:54.122Z,101670.63
2022-08-07T17:20:30.690Z,101669.56
2022-08-07T17:23:02.154Z,101667.06
2022-08-07T17:25:51.348Z,101671.88
2022-08-07T17:28:25.194Z,101669.97
2022-08-07T17:31:16.201Z,101682.47
2022-08-07T17:34:32.766Z,101676.81
2022-08-07T17:36:57.868Z,101676.16
2022-08-07T17:39:58.221Z,101677.56
2022-08-07T17:42:32.430Z,101672.47
2022-08-07T17:45:00.237Z,101679.81
2022-08-07T17:47:38.497Z,101675.28
2022-08-07T17:50:16.686Z,101670.81
2022-08-07T17:52:50.347Z,101673.31
2022-08-07T17:56:01.249Z,101676.47
2022-08-07T17:58:09.225Z,101672.44
2022-08-07T18:00:48.782Z,101680.81
2022-08-07T18:03:21.728Z,101675.88
2022-08-07T18:06:01.591Z,101673.84
2022-08-07T18:08:33.074Z,101669.63
2022-08-07T18:12:06.877Z,101674.44
2022-08-07T18:13:55.484Z,101673.00
2022-08-07T18:21:10.964Z,101670.59
2022-08-07T18:22:06.224Z,101668.91
2022-08-07T18:24:43.029Z,101667.63
2022-08-07T18:27:17.415Z,101669.28
2022-08-07T18:30:06.279Z,101674.84
2022-08-07T18:32:51.634Z,101678.41
2022-08-07T18:35:27.145Z,101675.16
2022-08-07T18:38:57.225Z,101672.97
2022-08-07T18:41:08.185Z,101687.59
2022-08-07T18:43:49.247Z,101689.28
2022-08-07T18:46:27.179Z,101688.59
2022-08-07T18:50:32.362Z,101686.25
2022-08-07T18:52:25.490Z,101690.28
2022-08-07T18:54:49.617Z,101683.06
2022-08-07T18:57:40.306Z,101685.44
2022-08-07T19:00:34.478Z,101690.13
2022-08-07T19:03:00.424Z,101700.31
2022-08-07T19:06:03.355Z,101696.16
2022-08-07T19:08:23.414Z,101702.19
2022-08-07T19:11:00.644Z,101710.03
2022-08-07T19:13:37.097Z,101693.78
2022-08-07T19:16:43.637Z,101699.47
2022-08-07T19:18:59.297Z,101699.28
2022-08-07T19:21:47.574Z,101702.25
2022-08-07T19:24:30.552Z,101705.09
2022-08-07T19:29:02.923Z,101702.88
2022-08-07T19:31:03.179Z,101706.75
2022-08-07T19:32:45.466Z,101712.25
2022-08-07T19:35:17.246Z,101707.06
2022-08-07T19:37:57.063Z,101704.00
2022-08-07T19:40:31.639Z,101709.66
2022-08-07T19:43:09.500Z,101711.41
2022-08-07T19:46:07.536Z,101718.41
2022-08-07T19:48:42.807Z,101714.53
2022-08-07T19:51:19.972Z,101711.75
2022-08-07T19:54:32.675Z,101718.91
2022-08-07T19:57:51.256Z,101727.25
2022-08-07T19:59:41.229Z,101727.88
2022-08-07T20:02:24.147Z,101719.03
2022-08-07T20:04:56.062Z,101726.53
2022-08-07T20:07:48.082Z,101727.81
2022-08-07T20:10:35.994Z,101731.69
2022-08-07T20:13:22.730Z,101733.25
2022-08-07T20:15:51.959Z,101727.09
2022-08-07T20:18:32.971Z,101732.69
2022-08-07T20:21:20.874Z,101738.56
2022-08-07T20:23:54.095Z,101743.44
2022-08-07T20:26:29.866Z,101738.66
2022-08-07T20:29:17.071Z,101733.69
2022-08-07T20:32:02.047Z,101738.91
2022-08-07T20:34:49.502Z,101741.28
2022-08-07T20:37:22.499Z,101750.50
2022-08-07T20:40:02.792Z,101748.13
2022-08-07T20:42:32.984Z,101748.50
2022-08-07T20:45:02.575Z,101742.63
2022-08-07T20:47:55.472Z,101741.09
2022-08-07T20:50:22.058Z,101740.03
2022-08-07T20:52:52.559Z,101747.50
2022-08-07T20:55:23.954Z,101744.47
2022-08-07T20:58:02.550Z,101749.56
2022-08-07T21:00:39.237Z,101752.19
2022-08-07T21:03:12.850Z,101759.44
2022-08-07T21:05:55.892Z,101754.22
2022-08-07T21:08:36.743Z,101756.28
2022-08-07T21:11:10.927Z,101747.84
2022-08-07T21:13:57.151Z,101748.19
2022-08-07T21:16:34.655Z,101745.09
2022-08-07T21:19:09.150Z,101756.84
2022-08-07T21:21:57.010Z,101751.50
2022-08-07T21:24:30.616Z,101751.84
2022-08-07T21:27:01.857Z,101750.47
2022-08-07T21:29:40.723Z,101756.63
2022-08-07T21:32:47.799Z,101753.84
2022-08-07T21:35:16.410Z,101756.56
2022-08-07T21:38:04.896Z,101748.72
2022-08-07T21:40:38.390Z,101755.88
2022-08-07T21:43:10.749Z,101752.53
2022-08-07T21:46:08.812Z,101755.63
2022-08-07T21:48:42.551Z,101755.63
2022-08-07T21:51:25.069Z,101758.56
2022-08-07T21:53:54.231Z,101755.22
2022-08-07T21:56:36.322Z,101753.00
2022-08-07T21:59:10.653Z,101756.78
2022-08-07T22:02:11.184Z,101751.06
2022-08-07T22:04:38.948Z,101750.66
2022-08-07T22:07:08.174Z,101748.41
2022-08-07T22:09:54.329Z,101750.66
2022-08-07T22:12:25.245Z,101753.63
2022-08-07T22:15:00.143Z,101756.41
2022-08-07T22:17:36.038Z,101749.13
2022-08-07T22:20:10.861Z,101751.38
2022-08-07T22:22:53.889Z,101755.84
2022-08-07T22:25:28.261Z,101748.72
2022-08-07T22:28:29.975Z,101753.03
2022-08-07T22:30:58.130Z,101749.00
2022-08-07T22:33:52.908Z,101745.06
2022-08-07T22:36:27.786Z,101755.28
2022-08-07T22:39:00.207Z,101750.13
2022-08-07T22:42:03.119Z,101752.06
2022-08-07T22:44:19.870Z,101754.44
2022-08-07T22:47:11.384Z,101751.31
2022-08-07T22:49:55.746Z,101748.38
2022-08-07T22:52:43.213Z,101745.03
2022-08-07T22:55:30.208Z,101754.41
2022-08-07T22:58:16.992Z,101758.88
2022-08-07T23:00:51.731Z,101754.09
2022-08-07T23:03:57.231Z,101759.56
2022-08-07T23:06:35.748Z,101765.06
2022-08-07T23:10:04.906Z,101758.59
2022-08-07T23:12:32.698Z,101754.81
2022-08-07T23:15:08.484Z,101761.81
2022-08-07T23:17:42.346Z,101758.88
2022-08-07T23:20:51.710Z,101755.53
2022-08-07T23:24:07.100Z,101764.91
2022-08-07T23:26:18.257Z,101764.63
2022-08-07T23:29:05.044Z,101762.94
2022-08-07T23:34:18.823Z,101761.97
2022-08-07T23:35:01.574Z,101765.63
2022-08-07T23:38:00.376Z,101765.72
2022-08-07T23:40:34.156Z,101758.72
2022-08-07T23:43:16.864Z,101761.34
2022-08-07T23:46:02.806Z,101757.00
2022-08-07T23:48:41.823Z,101759.09
2022-08-07T23:53:16.846Z,101757.25
2022-08-07T23:54:06.425Z,101760.91
2022-08-07T23:56:53.462Z,101755.16
